createdAt,value
2023-04-19T00:01:02.076Z,100497.63
2023-04-19T00:04:05.317Z,100494.44
2023-04-19T00:07:11.441Z,100495.13
2023-04-19T00:10:14.193Z,100490.25
2023-04-19T00:13:16.950Z,100497.97
2023-04-19T00:16:22.650Z,100489.72
2023-04-19T00:19:26.380Z,100488.13
2023-04-19T00:22:29.071Z,100489.53
2023-04-19T00:25:32.188Z,100487.59
2023-04-19T00:28:35.377Z,100483.16
2023-04-19T00:31:40.082Z,100485.78
2023-04-19T00:34:42.810Z,100477.50
2023-04-19T00:37:45.461Z,100474.44
2023-04-19T00:40:48.214Z,100477.44
2023-04-19T00:43:51.071Z,100468.44
2023-04-19T00:46:54.323Z,100465.00
2023-04-19T00:49:56.998Z,100462.38
2023-04-19T00:52:59.948Z,100460.06
2023-04-19T00:56:04.947Z,100457.28
2023-04-19T00:59:07.796Z,100456.59
2023-04-19T01:02:13.587Z,100455.94
2023-04-19T01:05:19.601Z,100450.31
2023-04-19T01:08:23.997Z,100445.72
2023-04-19T01:11:29.051Z,100442.44
2023-04-19T01:14:31.759Z,100443.25
2023-04-19T01:17:35.055Z,100434.88
2023-04-19T01:20:37.950Z,100432.91
2023-04-19T01:23:40.929Z,100435.41
2023-04-19T01:26:45.643Z,100430.16
2023-04-19T01:29:51.311Z,100430.28
2023-04-19T01:32:54.065Z,100432.09
2023-04-19T01:35:56.682Z,100427.16
2023-04-19T01:38:59.419Z,100423.47
2023-04-19T01:42:03.215Z,100431.75
2023-04-19T01:45:06.669Z,100422.41
2023-04-19T01:48:09.515Z,100425.22
2023-04-19T01:51:12.544Z,100424.31
2023-04-19T01:54:15.366Z,100419.87
2023-04-19T01:57:19.143Z,100418.62
2023-04-19T02:00:23.704Z,100409.13
2023-04-19T02:03:29.638Z,100409.84
2023-04-19T02:06:32.666Z,100405.16
2023-04-19T02:09:37.057Z,100403.78
2023-04-19T02:12:42.656Z,100401.16
2023-04-19T02:15:45.332Z,100396.47
2023-04-19T02:18:48.415Z,100395.06
2023-04-19T02:21:52.061Z,100393.69
2023-04-19T02:24:54.691Z,100393.97
2023-04-19T02:27:57.448Z,100392.44
2023-04-19T02:31:05.874Z,100386.66
2023-04-19T02:34:08.945Z,100383.59
2023-04-19T02:37:11.606Z,100386.91
2023-04-19T02:40:14.398Z,100387.13
2023-04-19T02:43:17.045Z,100387.97
2023-04-19T02:46:19.792Z,100387.88
2023-04-19T02:49:23.454Z,100369.66
2023-04-19T02:52:27.060Z,100365.59
2023-04-19T02:55:29.784Z,100373.75
2023-04-19T02:58:35.588Z,100371.75
2023-04-19T03:01:38.372Z,100369.94
2023-04-19T03:04:41.491Z,100366.72
2023-04-19T03:07:44.768Z,100360.78
2023-04-19T03:10:47.485Z,100370.41
2023-04-19T03:13:50.486Z,100372.34
2023-04-19T03:16:53.223Z,100376.63
2023-04-19T03:19:56.912Z,100356.16
2023-04-19T03:22:59.643Z,100351.97
2023-04-19T03:26:05.178Z,100346.69
2023-04-19T03:29:07.936Z,100336.88
2023-04-19T03:32:10.715Z,100343.88
2023-04-19T03:35:13.537Z,100340.56
2023-04-19T03:38:16.746Z,100339.03
2023-04-19T03:41:23.843Z,100351.84
2023-04-19T03:44:26.553Z,100338.72
2023-04-19T03:47:29.250Z,100335.16
2023-04-19T03:50:32.236Z,100330.44
2023-04-19T03:53:36.479Z,100329.13
2023-04-19T03:56:39.136Z,100343.28
2023-04-19T03:59:45.030Z,100335.63
2023-04-19T04:02:47.897Z,100329.06
2023-04-19T04:05:50.677Z,100326.59
2023-04-19T04:08:53.484Z,100331.69
2023-04-19T04:11:56.857Z,100327.56
2023-04-19T04:14:59.727Z,100330.56
2023-04-19T04:18:02.618Z,100337.62
2023-04-19T04:21:05.922Z,100333.06
2023-04-19T04:24:10.069Z,100334.38
2023-04-19T04:27:12.765Z,100339.84
2023-04-19T04:30:15.461Z,100338.69
2023-04-19T04:33:18.287Z,100339.88
2023-04-19T04:36:22.178Z,100333.16
2023-04-19T04:39:24.895Z,100334.66
2023-04-19T04:42:28.070Z,100338.75
2023-04-19T04:45:32.315Z,100340.09
2023-04-19T04:48:35.405Z,100337.16
2023-04-19T04:51:38.442Z,100341.59
2023-04-19T04:54:41.330Z,100337.88
2023-04-19T04:57:45.484Z,100341.00
2023-04-19T05:00:49.219Z,100335.09
2023-04-19T05:03:52.809Z,100333.97
2023-04-19T05:06:55.546Z,100326.41
2023-04-19T05:10:01.430Z,100332.16
2023-04-19T05:13:07.321Z,100328.91
2023-04-19T05:16:10.064Z,100326.62
2023-04-19T05:19:12.828Z,100329.44
2023-04-19T05:22:15.929Z,100329.78
2023-04-19T05:25:18.725Z,100329.31
2023-04-19T05:28:21.388Z,100323.88
2023-04-19T05:31:27.567Z,100323.25
2023-04-19T05:34:33.981Z,100326.84
2023-04-19T05:37:37.085Z,100304.66
2023-04-19T05:40:41.609Z,100316.31
2023-04-19T05:43:47.193Z,100321.44
2023-04-19T05:46:52.677Z,100318.13
2023-04-19T05:49:55.543Z,100301.53
2023-04-19T05:53:01.234Z,100314.34
2023-04-19T05:56:07.361Z,100299.03
2023-04-19T05:59:11.746Z,100313.16
2023-04-19T06:02:17.405Z,100323.53
2023-04-19T06:05:23.586Z,100324.03
2023-04-19T06:08:26.459Z,100311.50
2023-04-19T06:11:38.835Z,100318.91
2023-04-19T06:14:50.103Z,100322.53
2023-04-19T06:17:52.882Z,100322.19
2023-04-19T06:20:55.796Z,100316.28
2023-04-19T06:24:03.156Z,100317.75
2023-04-19T06:27:06.202Z,100307.87
2023-04-19T06:30:09.301Z,100318.72
2023-04-19T06:33:14.860Z,100320.72
2023-04-19T06:36:17.529Z,100320.19
2023-04-19T06:39:23.465Z,100314.06
2023-04-19T06:42:26.700Z,100320.78
2023-04-19T06:45:32.633Z,100310.56
2023-04-19T06:48:35.705Z,100308.41
2023-04-19T06:51:39.821Z,100311.00
2023-04-19T06:54:42.624Z,100306.66
2023-04-19T06:57:45.398Z,100309.19
2023-04-19T07:00:54.180Z,100305.63
2023-04-19T07:03:57.626Z,100298.25
2023-04-19T07:07:00.706Z,100308.03
2023-04-19T07:10:03.659Z,100297.91
2023-04-19T07:13:06.377Z,100304.94
2023-04-19T07:16:09.303Z,100298.84
2023-04-19T07:19:14.938Z,100296.19
2023-04-19T07:22:17.754Z,100300.28
2023-04-19T07:25:20.634Z,100296.09
2023-04-19T07:28:23.372Z,100298.94
2023-04-19T07:31:27.246Z,100297.09
2023-04-19T07:34:30.196Z,100302.56
2023-04-19T07:37:33.007Z,100300.66
2023-04-19T07:40:35.906Z,100295.94
2023-04-19T07:43:44.989Z,100304.41
2023-04-19T07:46:47.751Z,100293.47
2023-04-19T07:49:53.837Z,100296.28
2023-04-19T07:52:56.922Z,100295.19
2023-04-19T07:55:59.637Z,100289.75
2023-04-19T07:59:09.004Z,100292.28
2023-04-19T08:02:16.792Z,100274.72
2023-04-19T08:05:20.360Z,100289.31
2023-04-19T08:08:24.780Z,100289.31
2023-04-19T08:11:28.233Z,100288.37
2023-04-19T08:14:37.745Z,100291.41
2023-04-19T08:17:47.037Z,100284.87
2023-04-19T08:20:49.900Z,100288.63
2023-04-19T08:23:54.278Z,100283.66
2023-04-19T08:26:59.993Z,100280.00
2023-04-19T08:30:03.876Z,100282.16
2023-04-19T08:33:07.558Z,100284.00
2023-04-19T08:36:10.636Z,100286.00
2023-04-19T08:39:24.506Z,100276.53
2023-04-19T08:42:36.721Z,100278.38
2023-04-19T08:45:39.884Z,100277.91
2023-04-19T08:48:45.170Z,100269.28
2023-04-19T08:51:50.254Z,100265.56
2023-04-19T08:54:55.584Z,100269.00
2023-04-19T08:57:58.947Z,100270.91
2023-04-19T09:01:04.230Z,100275.16
2023-04-19T09:04:21.628Z,100270.16
2023-04-19T09:07:31.646Z,100261.44
2023-04-19T09:10:37.319Z,100265.44
2023-04-19T09:13:42.641Z,100262.69
2023-04-19T09:16:46.116Z,100259.03
2023-04-19T09:19:50.108Z,100262.28
2023-04-19T09:23:07.431Z,100253.22
2023-04-19T09:29:19.936Z,100251.38
2023-04-19T09:32:24.178Z,100255.81
2023-04-19T09:35:59.963Z,100250.09
2023-04-19T09:39:06.198Z,100252.06
2023-04-19T09:42:09.477Z,100251.16
2023-04-19T09:48:23.510Z,100239.88
2023-04-19T09:51:40.867Z,100251.81
2023-04-19T09:54:44.836Z,100243.34
2023-04-19T09:57:47.590Z,100246.00
2023-04-19T10:03:59.186Z,100257.47
2023-04-19T10:10:20.666Z,100246.56
2023-04-19T10:13:27.773Z,100241.34
2023-04-19T10:16:31.435Z,100253.06
2023-04-19T10:19:36.424Z,100246.34
2023-04-19T10:22:39.778Z,100252.25
2023-04-19T10:25:47.017Z,100252.09
2023-04-19T10:28:49.759Z,100255.38
2023-04-19T10:31:55.840Z,100244.44
2023-04-19T10:35:05.087Z,100245.31
2023-04-19T10:38:13.071Z,100245.34
2023-04-19T10:41:18.487Z,100245.50
2023-04-19T10:44:21.520Z,100244.31
2023-04-19T10:47:46.106Z,100250.81
2023-04-19T10:50:58.949Z,100246.41
2023-04-19T10:54:06.815Z,100242.72
2023-04-19T10:57:11.562Z,100238.44
2023-04-19T11:00:21.911Z,100245.84
2023-04-19T11:03:53.969Z,100242.31
2023-04-19T11:07:02.722Z,100241.47
2023-04-19T11:10:05.947Z,100241.09
2023-04-19T11:13:09.473Z,100233.19
2023-04-19T11:16:12.324Z,100234.66
2023-04-19T11:19:16.687Z,100229.31
2023-04-19T11:22:19.699Z,100236.69
2023-04-19T11:25:22.851Z,100222.31
2023-04-19T11:28:25.598Z,100230.25
2023-04-19T11:31:29.793Z,100226.53
2023-04-19T11:34:41.576Z,100236.38
2023-04-19T11:37:47.657Z,100233.81
2023-04-19T11:41:00.010Z,100230.09
2023-04-19T11:44:05.272Z,100233.25
2023-04-19T11:47:08.460Z,100230.56
2023-04-19T11:50:30.944Z,100232.63
2023-04-19T11:53:33.927Z,100235.69
2023-04-19T11:56:37.533Z,100241.81
2023-04-19T12:00:05.740Z,100239.78
2023-04-19T12:03:09.113Z,100216.78
2023-04-19T12:06:14.808Z,100226.66
2023-04-19T12:09:22.874Z,100228.16
2023-04-19T12:12:33.005Z,100229.50
2023-04-19T12:15:46.332Z,100225.25
2023-04-19T12:18:53.156Z,100223.03
2023-04-19T12:22:11.727Z,100224.59
2023-04-19T12:25:17.750Z,100202.94
2023-04-19T12:28:20.781Z,100218.56
2023-04-19T12:31:23.776Z,100214.53
2023-04-19T12:34:28.125Z,100217.28
2023-04-19T12:37:30.893Z,100214.41
2023-04-19T12:40:34.051Z,100209.66
2023-04-19T12:43:37.132Z,100209.19
2023-04-19T12:46:39.981Z,100215.44
2023-04-19T12:49:42.874Z,100204.59
2023-04-19T12:52:46.474Z,100218.38
2023-04-19T12:55:49.937Z,100207.56
2023-04-19T12:58:53.198Z,100210.28
2023-04-19T13:01:58.283Z,100208.34
2023-04-19T13:05:01.877Z,100206.06
2023-04-19T13:08:05.662Z,100196.00
2023-04-19T13:11:09.528Z,100203.94
2023-04-19T13:14:12.163Z,100201.44
2023-04-19T13:17:15.016Z,100193.37
2023-04-19T13:20:20.418Z,100201.03
2023-04-19T13:23:23.051Z,100197.19
2023-04-19T13:26:26.247Z,100202.59
2023-04-19T13:29:29.414Z,100200.38
2023-04-19T13:32:32.632Z,100205.41
2023-04-19T13:35:35.600Z,100201.66
2023-04-19T13:38:38.292Z,100201.88
2023-04-19T13:41:41.177Z,100201.19
2023-04-19T13:44:43.882Z,100197.19
2023-04-19T13:47:47.185Z,100190.81
2023-04-19T13:50:51.599Z,100185.50
2023-04-19T13:53:54.562Z,100194.34
2023-04-19T13:56:58.053Z,100187.88
2023-04-19T14:00:00.641Z,100185.59
2023-04-19T14:03:03.548Z,100188.50
2023-04-19T14:06:06.747Z,100191.69
2023-04-19T14:09:09.695Z,100182.69
2023-04-19T14:12:13.052Z,100180.00
2023-04-19T14:15:15.744Z,100189.41
2023-04-19T14:18:18.624Z,100183.97
2023-04-19T14:21:21.978Z,100180.25
2023-04-19T14:24:24.774Z,100177.97
2023-04-19T14:27:27.565Z,100184.31
2023-04-19T14:30:31.249Z,100174.47
2023-04-19T14:33:34.610Z,100185.59
2023-04-19T14:36:37.436Z,100177.97
2023-04-19T14:39:40.381Z,100186.37
2023-04-19T14:42:43.577Z,100184.91
2023-04-19T14:45:48.962Z,100183.53
2023-04-19T14:48:52.022Z,100186.19
2023-04-19T14:51:54.838Z,100186.81
2023-04-19T14:54:58.224Z,100186.19
2023-04-19T14:58:00.929Z,100185.63
2023-04-19T15:01:14.913Z,100188.44
2023-04-19T15:04:18.048Z,100191.72
2023-04-19T15:07:21.904Z,100199.09
2023-04-19T15:10:24.865Z,100197.47
2023-04-19T15:13:29.909Z,100197.84
2023-04-19T15:16:32.768Z,100198.97
2023-04-19T15:19:37.040Z,100202.91
2023-04-19T15:22:40.292Z,100204.56
2023-04-19T15:25:43.326Z,100207.50
2023-04-19T15:28:46.241Z,100209.91
2023-04-19T15:31:49.631Z,100206.31
2023-04-19T15:34:52.483Z,100209.94
2023-04-19T15:37:55.454Z,100212.34
2023-04-19T15:40:59.052Z,100223.75
2023-04-19T15:44:05.880Z,100229.25
2023-04-19T15:47:08.892Z,100222.16
2023-04-19T15:50:11.733Z,100232.31
2023-04-19T15:53:14.896Z,100224.41
2023-04-19T15:56:18.293Z,100227.06
2023-04-19T15:59:20.984Z,100231.31
2023-04-19T16:02:24.434Z,100224.91
2023-04-19T16:05:27.698Z,100231.03
2023-04-19T16:08:30.710Z,100224.88
2023-04-19T16:11:33.601Z,100231.34
2023-04-19T16:14:36.551Z,100228.81
2023-04-19T16:17:39.307Z,100230.28
2023-04-19T16:20:42.160Z,100222.84
2023-04-19T16:23:45.458Z,100218.66
2023-04-19T16:26:48.356Z,100222.69
2023-04-19T16:29:57.039Z,100225.34
2023-04-19T16:33:05.477Z,100214.13
2023-04-19T16:36:12.000Z,100222.06
2023-04-19T16:39:17.006Z,100220.41
2023-04-19T16:42:20.371Z,100221.56
2023-04-19T16:45:24.214Z,100223.03
2023-04-19T16:48:27.468Z,100222.50
2023-04-19T16:51:30.206Z,100223.19
2023-04-19T16:54:37.024Z,100217.38
2023-04-19T16:57:39.756Z,100214.84
2023-04-19T17:00:42.896Z,100224.88
2023-04-19T17:03:45.978Z,100225.00
2023-04-19T17:06:48.897Z,100231.16
2023-04-19T17:09:51.899Z,100239.22
2023-04-19T17:12:55.816Z,100233.72
2023-04-19T17:15:59.624Z,100239.50
2023-04-19T17:19:05.597Z,100239.50
2023-04-19T17:22:09.521Z,100243.06
2023-04-19T17:25:12.310Z,100240.44
2023-04-19T17:28:15.374Z,100238.28
2023-04-19T17:31:21.595Z,100245.44
2023-04-19T17:34:24.556Z,100241.88
2023-04-19T17:37:27.534Z,100242.88
2023-04-19T17:40:31.586Z,100243.81
2023-04-19T17:43:35.568Z,100255.91
2023-04-19T17:46:39.417Z,100256.69
2023-04-19T17:49:45.507Z,100258.75
2023-04-19T17:52:48.625Z,100263.81
2023-04-19T17:55:51.705Z,100261.41
2023-04-19T17:58:54.789Z,100262.91
2023-04-19T18:01:57.890Z,100262.16
2023-04-19T18:05:02.328Z,100269.31
2023-04-19T18:08:05.914Z,100274.25
2023-04-19T18:11:10.332Z,100269.38
2023-04-19T18:14:13.430Z,100284.09
2023-04-19T18:17:19.383Z,100269.09
2023-04-19T18:20:22.366Z,100280.22
2023-04-19T18:23:25.489Z,100289.62
2023-04-19T18:26:41.585Z,100287.84
2023-04-19T18:29:44.414Z,100293.00
2023-04-19T18:32:47.639Z,100294.19
2023-04-19T18:35:50.869Z,100297.00
2023-04-19T18:38:54.657Z,100294.53
2023-04-19T18:41:58.358Z,100297.31
2023-04-19T18:45:04.375Z,100298.34
2023-04-19T18:48:08.409Z,100301.16
2023-04-19T18:51:12.231Z,100300.00
2023-04-19T18:54:19.810Z,100310.22
2023-04-19T18:57:26.535Z,100303.81
2023-04-19T19:00:30.745Z,100315.34
2023-04-19T19:06:40.273Z,100315.50
2023-04-19T19:09:55.268Z,100319.13
2023-04-19T19:13:00.051Z,100320.75
2023-04-19T19:16:05.898Z,100321.59
2023-04-19T19:19:09.199Z,100332.78
2023-04-19T19:22:25.266Z,100324.38
2023-04-19T19:25:31.263Z,100326.00
2023-04-19T19:28:34.586Z,100321.72
2023-04-19T19:31:37.795Z,100321.72
2023-04-19T19:34:53.798Z,100327.31
2023-04-19T19:37:59.139Z,100334.22
2023-04-19T19:41:30.955Z,100339.63
2023-04-19T19:44:28.542Z,100339.63
2023-04-19T19:47:35.339Z,100341.75
2023-04-19T19:51:07.366Z,100349.97
2023-04-19T19:54:02.033Z,100348.50
2023-04-19T20:03:32.675Z,100348.13
2023-04-19T20:09:47.788Z,100348.00
2023-04-19T20:12:52.139Z,100351.56
2023-04-19T20:15:55.444Z,100355.19
2023-04-19T20:19:00.461Z,100349.09
2023-04-19T20:22:03.568Z,100351.06
2023-04-19T20:25:07.014Z,100349.75
2023-04-19T20:28:10.805Z,100352.53
2023-04-19T20:31:14.737Z,100355.34
2023-04-19T20:34:17.665Z,100361.75
2023-04-19T20:37:23.081Z,100357.31
2023-04-19T20:40:26.216Z,100356.81
2023-04-19T20:43:29.214Z,100355.63
2023-04-19T20:46:34.681Z,100355.78
2023-04-19T20:49:37.832Z,100363.00
2023-04-19T20:52:41.294Z,100361.38
2023-04-19T20:55:44.890Z,100358.03
2023-04-19T20:58:47.758Z,100365.44
2023-04-19T21:01:51.090Z,100361.97
2023-04-19T21:04:53.781Z,100362.13
2023-04-19T21:07:56.478Z,100358.19
2023-04-19T21:10:59.353Z,100361.44
2023-04-19T21:14:02.119Z,100362.94
2023-04-19T21:17:04.753Z,100356.50
2023-04-19T21:20:12.539Z,100358.78
2023-04-19T21:23:16.589Z,100365.84
2023-04-19T21:26:19.342Z,100361.41
2023-04-19T21:29:22.204Z,100358.59
2023-04-19T21:32:26.682Z,100357.09
2023-04-19T21:35:29.266Z,100354.63
2023-04-19T21:38:32.046Z,100362.34
2023-04-19T21:41:35.912Z,100367.59
2023-04-19T21:44:38.839Z,100373.00
2023-04-19T21:47:41.562Z,100371.38
2023-04-19T21:50:44.292Z,100370.69
2023-04-19T21:53:47.104Z,100372.16
2023-04-19T21:56:49.903Z,100379.53
2023-04-19T21:59:53.208Z,100364.03
2023-04-19T22:02:56.195Z,100371.41
2023-04-19T22:06:02.135Z,100371.72
2023-04-19T22:09:05.908Z,100368.94
2023-04-19T22:12:10.048Z,100369.25
2023-04-19T22:15:12.712Z,100363.63
2023-04-19T22:18:15.666Z,100371.31
2023-04-19T22:21:18.673Z,100369.81
2023-04-19T22:24:24.314Z,100371.78
2023-04-19T22:27:30.506Z,100376.34
2023-04-19T22:30:33.587Z,100374.84
2023-04-19T22:33:36.399Z,100378.94
2023-04-19T22:36:39.241Z,100372.34
2023-04-19T22:39:41.981Z,100380.34
2023-04-19T22:42:44.670Z,100369.34
2023-04-19T22:45:50.353Z,100371.25
2023-04-19T22:48:53.620Z,100369.25
2023-04-19T22:51:56.526Z,100367.53
2023-04-19T22:54:59.133Z,100367.84
2023-04-19T22:58:01.957Z,100374.38
2023-04-19T23:01:04.660Z,100375.66
2023-04-19T23:04:07.463Z,100371.81
2023-04-19T23:07:10.252Z,100380.16
2023-04-19T23:10:13.773Z,100383.22
2023-04-19T23:13:17.248Z,100382.69
2023-04-19T23:16:20.170Z,100376.91
2023-04-19T23:19:23.013Z,100378.84
2023-04-19T23:22:26.171Z,100386.47
2023-04-19T23:25:29.097Z,100372.69
2023-04-19T23:28:31.911Z,100377.94
2023-04-19T23:31:34.628Z,100376.88
2023-04-19T23:34:37.631Z,100379.94
2023-04-19T23:37:41.265Z,100370.44
2023-04-19T23:40:44.032Z,100372.31
2023-04-19T23:43:46.704Z,100375.91
2023-04-19T23:46:49.586Z,100379.50
2023-04-19T23:49:52.331Z,100378.34
2023-04-19T23:52:55.017Z,100377.25
2023-04-19T23:55:58.086Z,100372.00
2023-04-19T23:59:00.873Z,100364.56
